TimeEDT,TemperatureF,Dew PointF,Humidity,Sea Level PressureIn,VisibilityMPH,Wind Direction,Wind SpeedMPH,Gust SpeedMPH,PrecipitationIn,Events,Conditions,WindDirDegrees,DateUTC
12:26 AM,73.4,69.8,88,29.97,10.0,South,3.5,-,N/A,,Mostly Cloudy,170,2012-09-05 04:26:00
12:53 AM,73.0,70.0,90,29.94,10.0,Calm,Calm,-,N/A,,Overcast,0,2012-09-05 04:53:00
1:39 AM,73.4,69.8,88,29.97,10.0,Calm,Calm,-,N/A,,Overcast,0,2012-09-05 05:39:00
1:53 AM,72.0,70.0,93,29.94,10.0,Calm,Calm,-,N/A,,Overcast,0,2012-09-05 05:53:00
2:53 AM,73.0,70.0,90,29.94,10.0,Calm,Calm,-,N/A,,Overcast,0,2012-09-05 06:53:00
3:53 AM,73.0,70.0,90,29.92,10.0,Calm,Calm,-,N/A,,Overcast,0,2012-09-05 07:53:00
4:01 AM,73.4,69.8,88,29.95,10.0,Calm,Calm,-,N/A,,Overcast,0,2012-09-05 08:01:00
4:53 AM,73.0,70.0,90,29.92,10.0,South,5.8,-,N/A,,Overcast,180,2012-09-05 08:53:00
5:03 AM,73.4,69.8,88,29.95,8.0,South,5.8,-,N/A,,Overcast,180,2012-09-05 09:03:00
5:40 AM,71.6,71.6,100,29.95,2.5,Calm,Calm,-,N/A,,Overcast,0,2012-09-05 09:40:00
5:49 AM,71.6,71.6,100,29.96,3.0,SW,3.5,-,N/A,,Overcast,220,2012-09-05 09:49:00
5:53 AM,72.0,71.1,97,29.93,4.0,SW,3.5,-,N/A,,Overcast,230,2012-09-05 09:53:00
6:48 AM,73.4,71.6,94,29.97,9.0,Calm,Calm,-,N/A,,Overcast,0,2012-09-05 10:48:00
6:53 AM,73.0,71.1,93,29.94,10.0,SW,4.6,-,N/A,,Overcast,220,2012-09-05 10:53:00
7:22 AM,73.4,71.6,94,29.98,8.0,Calm,Calm,-,0.00,,Overcast,0,2012-09-05 11:22:00
7:53 AM,73.0,71.1,93,29.95,7.0,SSW,3.5,-,0.00,,Overcast,210,2012-09-05 11:53:00
8:21 AM,73.4,71.6,94,29.99,9.0,SSW,5.8,-,N/A,,Overcast,200,2012-09-05 12:21:00
8:53 AM,73.9,71.1,91,29.96,9.0,SSW,5.8,-,N/A,,Overcast,200,2012-09-05 12:53:00
9:53 AM,75.0,71.1,87,29.96,10.0,South,6.9,-,N/A,,Overcast,190,2012-09-05 13:53:00
10:53 AM,73.9,71.1,91,29.99,10.0,SSW,6.9,-,0.00,Rain,Light Rain,200,2012-09-05 14:53:00
11:41 AM,75.2,71.6,89,30.01,10.0,SSW,4.6,-,0.00,,Overcast,210,2012-09-05 15:41:00
11:53 AM,75.9,72.0,87,29.98,10.0,SW,8.1,-,0.00,,Overcast,230,2012-09-05 15:53:00
12:44 PM,80.6,71.6,74,29.99,10.0,SW,9.2,-,N/A,,Overcast,220,2012-09-05 16:44:00
12:53 PM,81.0,71.1,72,29.95,10.0,SSW,5.8,-,N/A,,Mostly Cloudy,200,2012-09-05 16:53:00
1:53 PM,81.0,70.0,69,29.95,10.0,SSW,9.2,-,N/A,,Mostly Cloudy,210,2012-09-05 17:53:00
2:53 PM,82.0,70.0,67,29.92,10.0,SW,8.1,-,N/A,,Mostly Cloudy,230,2012-09-05 18:53:00
3:39 PM,84.2,69.8,62,29.93,10.0,SW,10.4,-,N/A,,Mostly Cloudy,220,2012-09-05 19:39:00
3:50 PM,84.2,69.8,62,29.93,10.0,SSW,9.2,-,N/A,,Scattered Clouds,210,2012-09-05 19:50:00
3:53 PM,84.9,70.0,61,29.90,10.0,South,11.5,-,N/A,,Scattered Clouds,190,2012-09-05 19:53:00
4:53 PM,84.9,70.0,61,29.89,10.0,South,9.2,-,N/A,,Mostly Cloudy,190,2012-09-05 20:53:00
5:53 PM,84.0,69.1,61,29.89,10.0,SW,10.4,-,N/A,,Partly Cloudy,220,2012-09-05 21:53:00
6:53 PM,82.0,70.0,67,29.89,10.0,South,8.1,-,N/A,,Scattered Clouds,190,2012-09-05 22:53:00
7:53 PM,79.0,70.0,74,29.90,10.0,SSW,6.9,-,N/A,,Clear,200,2012-09-05 23:53:00
8:53 PM,77.0,69.1,76,29.91,10.0,SSW,3.5,-,N/A,,Clear,210,2012-09-06 00:53:00
9:53 PM,75.9,70.0,82,29.92,10.0,SSW,3.5,-,N/A,,Clear,210,2012-09-06 01:53:00
10:53 PM,75.0,70.0,84,29.92,10.0,SSW,4.6,-,N/A,,Clear,210,2012-09-06 02:53:00
11:53 PM,75.0,70.0,84,29.93,10.0,SW,3.5,-,N/A,,Clear,220,2012-09-06 03:53:00